LGAVLGKO

Guest
Details From LGAV - Athens Intl Airport Elefterios Venizel
To LGKO - KOS
Flight Number -
Tags generated
Created
Modified
Stats Distance 165 nm / 306 km
Max Altitude 19,700 ft / 6,005 m
Waypoints 3
Social Downloads 0
Likes 0
Share VATSIM

Download

Looking for another format? Having issues loading an existing format? Contact us
Advertisement - Login to hide

Notes

Basic altitude profile: - Ascent Rate: 2500ft/min - Ascent Speed: 250kts - Cruise Altitude: 16000ft - Cruise Speed: 420kts - Descent Rate: 1500ft/min - Descent Speed: 250kts Options: - Use NATs: yes - Use PACOTS: yes - Use low airways: yes - Use high airways: yes

Route

LGAV MKN LGKO

ID Type Via Altitude (ft/m) Position (lat/lon) Dist (leg/tot) Name
O LGAV APT - 0 / 0 37.93636 / 23.94447 - / 0 nm Athens Intl Airport Elefterios Venizel
MKN VOR - 19,700 / 6,005 37.44027 / 25.34449 72 / 72 nm MIKONOS VOR-DME
O LGKO APT - 0 / 0 36.79440 / 27.09076 92 / 165 nm KOS

Altitude Profile

Advertisement - Login to hide

Weather


0- 5 10 15 20 25 30 35+ Temperature / °C

Clouds and Precipitation
Forecast for 2019-03-22 12:00 UTC. Updated 3 hours ago

Ground ~20,000 ft ~40,000 ft Winds

LGAV

Details ICAO LGAV (ATH)
Name Athens Eleftherios Venizelos
Region Greece
Timezone Europe/Athens (UTC+2.0)
Stats Elevation 308 ft / 94 m (AMSL)
Location 37.936700° 23.944500°
Runways 2
Magnetic Variation 4.608° E

METAR

LGAV 221150Z 01022G34KT 9999 FEW030 15/04 Q1025 NOSIG

Decode

TAF

TAF TAF LGAV 221100Z 2212/2312 01022G32KT 9999 FEW030 BECMG 2216/2218 01022KT

Decode

Departure Runways

ID Width Length Bearing (true/mag) Surface Threshold Overrun Markings Lighting
03L 148 ft / 45 m 12,479 ft / 3,804 m 36.85° / 32.24° ASPHALT 984 ft / 300 m 397 ft / 121 m PREC-APP CENTERLINE EDGE THRESHOLD ALSF-II TDZ REIL-OMNI
03R 148 ft / 45 m 13,136 ft / 4,004 m 36.89° / 32.28° ASPHALT 984 ft / 300 m 387 ft / 118 m PREC-APP CENTERLINE EDGE THRESHOLD ALSF-II TDZ REIL-OMNI
21L 148 ft / 45 m 13,136 ft / 4,004 m 216.91° / 212.30° ASPHALT 984 ft / 300 m 400 ft / 122 m PREC-APP CENTERLINE EDGE THRESHOLD ALSF-II TDZ REIL-OMNI
21R 148 ft / 45 m 12,479 ft / 3,804 m 216.87° / 212.26° ASPHALT 984 ft / 300 m 394 ft / 120 m PREC-APP CENTERLINE EDGE THRESHOLD ALSF-II TDZ REIL-OMNI

LGKO

Details ICAO LGKO (KGS)
Name Kos
Region Greece
Timezone Europe/Athens (UTC+2.0)
Stats Elevation 412 ft / 126 m (AMSL)
Location 36.794600° 27.091100°
Runways 1
Magnetic Variation 4.844° E

METAR

LGKO 221150Z /////KT CAVOK 18/07 Q1018

Decode

TAF

TAF LGKO 221100Z 2212/2312 36018KT 9999 FEW020

Decode

Destination Runways

ID Width Length Bearing (true/mag) Surface Threshold Overrun Markings Lighting
14 148 ft / 45 m 7,882 ft / 2,402 m 148.07° / 143.22° ASPHALT 0 ft / 0 m 0 ft / 0 m APP EDGE THRESHOLD MALSF
32 148 ft / 45 m 7,882 ft / 2,402 m 328.08° / 323.23° ASPHALT 0 ft / 0 m 0 ft / 0 m APP EDGE THRESHOLD MALSF

Popular Alternatives